Time;durP1;ratioP1;P1;durP2;ratioP2;P2;SDS_P1;SDS_P2;PMS_P1;PMS_P2;Temp;Humidity;BMP_temperature;BMP_pressure;BME280_temperature;BME280_humidity;BME280_pressure;Samples;Min_cycle;Max_cycle;Signal;HPM_P1;HPM_P2
2022/09/12 00:00:15;;;;;;;31.25;19.45;;;15.90;99.90;;;-147.18;100.00;67318.16;4986102;28;20108;-80
2022/09/12 00:03:41;;;;;;;32.65;19.38;;;15.90;99.90;;;-147.18;100.00;67318.16;4981977;28;20046;-80
2022/09/12 00:07:08;;;;;;;35.28;20.90;;;15.90;99.90;;;-147.18;100.00;67318.16;4984565;28;20377;-80
2022/09/12 00:10:36;;;;;;;34.90;19.27;;;15.90;99.90;;;-147.18;100.00;67318.16;4979761;28;20046;-80
2022/09/12 00:14:03;;;;;;;39.10;20.52;;;15.90;99.90;;;-147.18;100.00;67318.16;4997803;28;20049;-80
2022/09/12 00:17:34;;;;;;;34.53;20.08;;;15.80;99.90;;;-147.18;100.00;67318.16;4985888;28;20419;-80
2022/09/12 00:21:02;;;;;;;33.95;18.95;;;15.80;99.90;;;-147.18;100.00;67318.16;4990702;28;20046;-80
2022/09/12 00:24:28;;;;;;;35.55;20.08;;;15.90;99.90;;;-147.18;100.00;67318.16;4988716;28;20130;-80
2022/09/12 00:27:53;;;;;;;37.95;20.27;;;15.80;99.90;;;-147.18;100.00;67318.16;4992403;28;20115;-80
2022/09/12 00:31:22;;;;;;;32.25;19.55;;;15.80;99.90;;;-147.18;100.00;67318.16;4987442;28;20117;-80
2022/09/12 00:34:49;;;;;;;34.63;19.67;;;15.70;99.90;;;-147.18;100.00;67318.16;4974141;28;20050;-80
2022/09/12 00:38:15;;;;;;;33.75;19.60;;;15.70;99.90;;;-147.18;100.00;67318.16;4992255;28;20050;-80
2022/09/12 00:41:41;;;;;;;33.25;19.77;;;15.70;99.90;;;-147.18;100.00;67318.16;4987985;28;20038;-80
2022/09/12 00:45:42;;;;;;;35.08;20.83;;;15.70;99.90;;;-147.18;100.00;67318.16;4982531;28;20043;-80
2022/09/12 00:49:21;;;;;;;33.30;19.23;;;15.70;99.90;;;-147.18;100.00;67318.16;4991537;28;20042;-80
2022/09/12 00:52:51;;;;;;;36.58;20.17;;;15.60;99.90;;;-147.18;100.00;67318.16;4987177;28;20411;-80
2022/09/12 00:56:22;;;;;;;40.13;21.50;;;15.60;99.90;;;-147.18;100.00;67318.16;4990412;28;20042;-80
2022/09/12 00:59:54;;;;;;;35.78;20.55;;;15.60;99.90;;;-147.18;100.00;67318.16;4992542;28;20050;-80
2022/09/12 01:03:22;;;;;;;34.58;20.33;;;15.60;99.90;;;-147.18;100.00;67318.16;4974308;28;20046;-80
2022/09/12 01:06:55;;;;;;;40.20;21.38;;;15.60;99.90;;;-147.18;100.00;67318.16;4979631;28;20053;-80
2022/09/12 01:10:23;;;;;;;33.92;19.83;;;15.60;99.90;;;-147.18;100.00;67318.16;4991671;28;20076;-80
2022/09/12 01:13:49;;;;;;;34.83;19.65;;;15.60;99.90;;;-147.18;100.00;67318.16;4992252;28;20111;-80
2022/09/12 01:17:15;;;;;;;35.42;19.95;;;15.60;99.90;;;-147.18;100.00;67318.16;4971969;28;20049;-80
2022/09/12 01:21:30;;;;;;;34.88;19.80;;;15.50;99.90;;;-147.18;100.00;67318.16;4982580;28;20051;-80
2022/09/12 01:25:31;;;;;;;36.17;19.92;;;15.50;99.90;;;-147.18;100.00;67318.16;4991373;28;20096;-80
2022/09/12 01:29:32;;;;;;;38.33;20.80;;;15.50;99.90;;;-147.18;100.00;67318.16;4987530;28;20050;-80
2022/09/12 01:33:16;;;;;;;33.33;19.37;;;15.40;99.90;;;-147.18;100.00;67318.16;4977912;28;20035;-80
2022/09/12 01:36:54;;;;;;;31.30;18.83;;;15.40;99.90;;;-147.18;100.00;67318.16;4990289;28;20286;-80
2022/09/12 01:40:31;;;;;;;33.03;18.52;;;15.40;99.90;;;-147.18;100.00;67318.16;4976690;28;20089;-80
2022/09/12 01:44:12;;;;;;;29.58;17.45;;;15.40;99.90;;;-147.18;100.00;67318.16;4989058;28;20057;-80
2022/09/12 01:47:47;;;;;;;37.13;19.10;;;15.40;99.90;;;-147.18;100.00;67318.16;4980305;28;20050;-80
2022/09/12 01:51:18;;;;;;;33.88;18.92;;;15.40;99.90;;;-147.18;100.00;67318.16;4990780;28;20057;-80
2022/09/12 01:54:49;;;;;;;38.65;20.10;;;15.40;99.90;;;-147.18;100.00;67318.16;4972597;28;20463;-80
2022/09/12 01:58:21;;;;;;;31.88;18.40;;;15.30;99.90;;;-147.18;100.00;67318.16;4990826;28;20046;-80
2022/09/12 02:01:54;;;;;;;30.70;17.38;;;15.30;99.90;;;-147.18;100.00;67318.16;4990766;28;20088;-80
2022/09/12 02:05:27;;;;;;;32.80;18.40;;;15.30;99.90;;;-147.18;100.00;67318.16;4973974;28;20042;-80
2022/09/12 02:08:58;;;;;;;31.60;17.85;;;15.20;99.90;;;-147.18;100.00;67318.16;4990390;28;20042;-80
2022/09/12 02:12:26;;;;;;;33.43;17.53;;;15.20;99.90;;;-147.18;100.00;67318.16;4990035;28;20038;-80
2022/09/12 02:15:58;;;;;;;29.08;17.13;;;15.20;99.90;;;-147.18;100.00;67318.16;4988859;28;20498;-80
2022/09/12 02:19:28;;;;;;;29.90;18.23;;;15.20;99.90;;;-147.18;100.00;67318.16;4989653;28;20101;-80
2022/09/12 02:22:57;;;;;;;32.88;18.63;;;15.20;99.90;;;-147.18;100.00;67318.16;4987730;28;20038;-80
2022/09/12 02:26:28;;;;;;;31.38;17.52;;;15.20;99.90;;;-147.18;100.00;67318.16;4988916;28;20072;-80
2022/09/12 02:29:54;;;;;;;32.90;18.83;;;15.10;99.90;;;-147.18;100.00;67318.16;4984199;28;21437;-80
2022/09/12 02:33:28;;;;;;;32.58;18.35;;;15.10;99.90;;;-147.18;100.00;67318.16;4978070;28;20424;-80
2022/09/12 02:37:03;;;;;;;34.45;18.85;;;15.10;99.90;;;-147.18;100.00;67318.16;4985520;28;20122;-80
2022/09/12 02:40:29;;;;;;;31.55;17.73;;;15.10;99.90;;;-147.18;100.00;67318.16;4989097;28;20077;-80
2022/09/12 02:43:55;;;;;;;33.45;18.38;;;15.10;99.90;;;-147.18;100.00;67318.16;4990620;28;20034;-80
2022/09/12 02:47:28;;;;;;;38.53;18.50;;;15.10;99.90;;;-147.18;100.00;67318.16;4989099;28;20073;-80
2022/09/12 02:50:54;;;;;;;31.88;17.75;;;15.10;99.90;;;-147.18;100.00;67318.16;4981002;28;20076;-80
2022/09/12 02:54:21;;;;;;;31.95;16.70;;;15.10;99.90;;;-147.18;100.00;67318.16;4966928;28;20517;-80
2022/09/12 02:57:47;;;;;;;29.30;17.30;;;15.00;99.90;;;-147.18;100.00;67318.16;4989055;28;20042;-80
2022/09/12 03:01:19;;;;;;;29.85;17.00;;;15.00;99.90;;;-147.18;100.00;67318.16;4984107;28;20054;-80
2022/09/12 03:05:11;;;;;;;30.10;16.65;;;15.00;99.90;;;-147.18;100.00;67318.16;4988345;28;20487;-80
2022/09/12 03:09:02;;;;;;;30.15;16.17;;;15.00;99.90;;;-147.18;100.00;67318.16;4975635;28;20042;-80
2022/09/12 03:12:52;;;;;;;28.50;16.25;;;15.00;99.90;;;-147.18;100.00;67318.16;4983436;28;20073;-80
2022/09/12 03:16:34;;;;;;;25.80;15.98;;;15.00;99.90;;;-147.18;100.00;67318.16;4987089;28;20049;-80
2022/09/12 03:20:09;;;;;;;29.13;16.20;;;14.90;99.90;;;-147.18;100.00;67318.16;4990246;28;20050;-80
2022/09/12 03:23:46;;;;;;;27.95;15.60;;;14.90;99.90;;;-147.18;100.00;67318.16;4982104;28;20053;-80
2022/09/12 03:27:19;;;;;;;29.27;15.57;;;14.90;99.90;;;-147.18;100.00;67318.16;4985866;28;20038;-80
2022/09/12 03:30:47;;;;;;;29.35;16.25;;;14.90;99.90;;;-147.18;100.00;67318.16;4981048;28;20038;-80
2022/09/12 03:34:14;;;;;;;24.55;14.75;;;14.90;99.90;;;-147.18;100.00;67318.16;4983329;28;20051;-80
2022/09/12 03:37:40;;;;;;;30.45;16.00;;;14.90;99.90;;;-147.18;100.00;67318.16;4983828;28;20051;-80
2022/09/12 03:41:07;;;;;;;25.02;15.43;;;14.90;99.90;;;-147.18;100.00;67318.16;4986482;28;20049;-80
2022/09/12 03:44:34;;;;;;;27.58;15.68;;;14.80;99.90;;;-147.18;100.00;67318.16;4977500;28;20129;-80
2022/09/12 03:48:00;;;;;;;31.25;16.27;;;14.80;99.90;;;-147.18;100.00;67318.16;4986251;28;20041;-80
2022/09/12 03:51:26;;;;;;;27.33;15.77;;;14.80;99.90;;;-147.18;100.00;67318.16;4991265;28;20070;-80
2022/09/12 03:54:51;;;;;;;29.67;16.80;;;14.80;99.90;;;-147.18;100.00;67318.16;4993000;28;20048;-80
2022/09/12 03:58:17;;;;;;;25.77;15.85;;;14.80;99.90;;;-147.18;100.00;67318.16;4989018;28;20117;-80
2022/09/12 04:01:44;;;;;;;27.05;16.73;;;14.80;99.90;;;-147.18;100.00;67318.16;4988512;28;20145;-80
2022/09/12 04:05:10;;;;;;;29.27;16.40;;;14.80;99.90;;;-147.18;100.00;67318.16;4991636;28;20042;-80
2022/09/12 04:08:36;;;;;;;28.25;16.25;;;14.80;99.90;;;-147.18;100.00;67318.16;4988988;28;20073;-80
2022/09/12 04:12:03;;;;;;;31.23;17.58;;;14.80;99.90;;;-147.18;100.00;67318.16;4974268;28;20039;-80
2022/09/12 04:15:29;;;;;;;33.95;17.08;;;14.80;99.90;;;-147.18;100.00;67318.16;4987009;28;20137;-80
2022/09/12 04:18:56;;;;;;;30.17;15.68;;;14.70;99.90;;;-147.18;100.00;67318.16;4982592;28;20134;-80
2022/09/12 04:22:22;;;;;;;26.77;15.10;;;14.70;99.90;;;-147.18;100.00;67318.16;4986778;28;20062;-80
2022/09/12 04:25:53;;;;;;;27.85;16.20;;;14.70;99.90;;;-147.18;100.00;67318.16;4992395;28;20051;-80
2022/09/12 04:29:19;;;;;;;25.83;15.20;;;14.70;99.90;;;-147.18;100.00;67318.16;4983559;28;20034;-80
2022/09/12 04:32:44;;;;;;;23.95;15.30;;;14.70;99.90;;;-147.18;100.00;67318.16;4980044;28;20316;-80
2022/09/12 04:36:15;;;;;;;31.35;15.88;;;14.70;99.90;;;-147.18;100.00;67318.16;4981250;28;20039;-81
2022/09/12 04:39:42;;;;;;;29.10;15.43;;;14.70;99.90;;;-147.18;100.00;67318.16;4991945;28;20546;-80
2022/09/12 04:43:08;;;;;;;26.42;15.38;;;14.70;99.90;;;-147.18;100.00;67318.16;4973733;28;20047;-80
2022/09/12 04:46:35;;;;;;;28.10;16.08;;;14.70;99.90;;;-147.18;100.00;67318.16;4982556;28;20578;-80
2022/09/12 04:50:01;;;;;;;22.38;14.57;;;14.60;99.90;;;-147.18;100.00;67318.16;4989327;28;20121;-80
2022/09/12 04:53:28;;;;;;;26.02;15.13;;;14.60;99.90;;;-147.18;100.00;67318.16;4992642;28;20122;-80
2022/09/12 04:56:54;;;;;;;25.80;14.50;;;14.60;99.90;;;-147.18;100.00;67318.16;4973637;28;20045;-80
2022/09/12 05:00:20;;;;;;;23.50;14.35;;;14.60;99.90;;;-147.18;100.00;67318.16;4972087;28;20039;-80
2022/09/12 05:03:47;;;;;;;26.67;15.27;;;14.60;99.90;;;-147.18;100.00;67318.16;4991877;28;20045;-82
2022/09/12 05:07:14;;;;;;;24.70;15.60;;;14.60;99.90;;;-147.18;100.00;67318.16;4987352;28;20049;-81
2022/09/12 05:10:41;;;;;;;24.63;14.57;;;14.60;99.90;;;-147.18;100.00;67318.16;4989515;28;20515;-81
2022/09/12 05:14:07;;;;;;;26.45;14.65;;;14.70;99.90;;;-147.18;100.00;67318.16;4991063;28;20143;-81
2022/09/12 05:17:33;;;;;;;27.90;16.10;;;14.70;99.90;;;-147.18;100.00;67318.16;4990740;28;20042;-82
2022/09/12 05:20:59;;;;;;;26.50;15.57;;;14.70;99.90;;;-147.18;100.00;67318.16;4991359;28;20050;-82
2022/09/12 05:24:25;;;;;;;32.20;16.83;;;14.70;99.90;;;-147.18;100.00;67318.16;4971488;28;20467;-82
2022/09/12 05:27:53;;;;;;;34.00;16.10;;;14.70;99.90;;;-147.18;100.00;67318.16;4974432;28;20096;-82
2022/09/12 05:31:20;;;;;;;29.27;16.35;;;14.80;99.90;;;-147.18;100.00;67318.16;4987598;28;20042;-81
2022/09/12 05:34:47;;;;;;;25.77;14.93;;;14.80;99.90;;;-147.18;100.00;67318.16;4991353;28;20073;-82
2022/09/12 05:38:14;;;;;;;26.45;15.55;;;14.90;99.90;;;-147.18;100.00;67318.16;4990523;28;20153;-80
2022/09/12 05:41:39;;;;;;;25.83;15.93;;;14.90;99.90;;;-147.18;100.00;67318.16;4989903;28;20146;-79
2022/09/12 05:45:10;;;;;;;30.27;16.63;;;15.00;99.90;;;-147.18;100.00;67318.16;4985024;28;20555;-81
2022/09/12 05:48:36;;;;;;;26.85;15.43;;;15.00;99.90;;;-147.18;100.00;67318.16;4986342;28;20039;-81
2022/09/12 05:52:04;;;;;;;27.45;15.18;;;15.10;99.90;;;-147.18;100.00;67318.16;4991324;28;20046;-81
2022/09/12 05:55:30;;;;;;;25.60;15.48;;;15.10;99.90;;;-147.18;100.00;67318.16;4985663;28;20397;-81
2022/09/12 05:58:57;;;;;;;28.92;16.10;;;15.20;99.90;;;-147.18;100.00;67318.16;4978182;28;20566;-82
2022/09/12 06:02:25;;;;;;;29.85;16.20;;;15.30;99.90;;;-147.18;100.00;67318.16;4972967;28;20046;-80
2022/09/12 06:05:51;;;;;;;24.90;15.35;;;15.30;99.90;;;-147.18;100.00;67318.16;5004749;28;20042;-80
2022/09/12 06:09:16;;;;;;;28.85;15.98;;;15.50;99.90;;;-147.18;100.00;67318.16;4986470;28;20042;-80
2022/09/12 06:12:43;;;;;;;26.40;15.80;;;15.50;99.90;;;-147.18;100.00;67318.16;5046528;28;20042;-77
2022/09/12 06:16:10;;;;;;;24.05;15.18;;;15.50;99.90;;;-147.18;100.00;67318.16;5027610;28;20041;-77
2022/09/12 06:19:37;;;;;;;27.67;15.07;;;15.60;99.90;;;-147.18;100.00;67318.16;5047775;28;20040;-77
2022/09/12 06:23:03;;;;;;;26.23;14.85;;;15.70;99.90;;;-147.18;100.00;67318.16;5012640;28;20053;-77
2022/09/12 06:26:29;;;;;;;25.30;14.98;;;15.80;99.90;;;-147.18;100.00;67318.16;5019903;28;20041;-77
2022/09/12 06:29:56;;;;;;;24.58;14.65;;;15.90;99.90;;;-147.18;100.00;67318.16;5029121;28;20498;-77
2022/09/12 06:33:22;;;;;;;24.42;15.40;;;15.90;99.90;;;-147.18;100.00;67318.16;5024128;28;20605;-77
2022/09/12 06:36:49;;;;;;;25.63;15.00;;;16.00;99.90;;;-147.18;100.00;67318.16;5017706;28;20038;-77
2022/09/12 06:40:16;;;;;;;22.23;14.38;;;16.10;99.90;;;-147.18;100.00;67318.16;5026616;28;20041;-77
2022/09/12 06:43:42;;;;;;;21.50;13.98;;;16.10;99.90;;;-147.18;100.00;67318.16;5029998;28;20041;-77
2022/09/12 06:47:08;;;;;;;24.60;14.82;;;16.20;99.90;;;-147.18;100.00;67318.16;5026623;28;20108;-77
2022/09/12 06:50:34;;;;;;;24.83;14.27;;;16.20;99.90;;;-147.18;100.00;67318.16;5022175;28;20037;-77
2022/09/12 06:54:01;;;;;;;24.25;13.73;;;16.30;99.90;;;-147.18;100.00;67318.16;5026317;28;20128;-76
2022/09/12 06:57:29;;;;;;;23.02;12.82;;;16.30;99.90;;;-147.18;100.00;67318.16;5009583;28;20510;-77
2022/09/12 07:01:01;;;;;;;21.40;13.10;;;16.50;99.90;;;-147.18;100.00;67318.16;5012476;28;20057;-77
2022/09/12 07:04:27;;;;;;;26.50;15.07;;;16.50;99.90;;;-147.18;100.00;67318.16;5017037;28;20100;-77
2022/09/12 07:07:53;;;;;;;22.10;14.30;;;16.50;99.90;;;-147.18;100.00;67318.16;5010050;28;20046;-77
2022/09/12 07:11:21;;;;;;;20.73;13.15;;;16.60;99.90;;;-147.18;100.00;67318.16;5014291;28;20038;-77
2022/09/12 07:14:48;;;;;;;23.50;13.70;;;16.60;99.90;;;-147.18;100.00;67318.16;5010520;28;20502;-77
2022/09/12 07:18:14;;;;;;;20.70;13.43;;;16.70;99.90;;;-147.18;100.00;67318.16;5029032;28;20041;-77
2022/09/12 07:21:40;;;;;;;24.08;13.95;;;16.80;99.90;;;-147.18;100.00;67318.16;5023498;28;20068;-78
2022/09/12 07:25:06;;;;;;;28.17;15.35;;;16.80;99.90;;;-147.18;100.00;67318.16;5029315;28;20049;-77
2022/09/12 07:28:34;;;;;;;22.05;12.98;;;16.90;99.90;;;-147.18;100.00;67318.16;5021818;28;20041;-77
2022/09/12 07:32:05;;;;;;;26.20;14.60;;;17.00;99.90;;;-147.18;100.00;67318.16;5027881;28;20030;-77
2022/09/12 07:35:32;;;;;;;23.23;13.25;;;17.00;99.90;;;-147.18;100.00;67318.16;5028751;28;20052;-77
2022/09/12 07:38:58;;;;;;;20.25;12.45;;;17.10;99.90;;;-147.18;100.00;67318.16;5019186;28;20494;-77
2022/09/12 07:42:25;;;;;;;22.35;13.57;;;17.10;99.90;;;-147.18;100.00;67318.16;5025535;28;20406;-77
2022/09/12 07:45:55;;;;;;;22.35;13.77;;;17.20;99.90;;;-147.18;100.00;67318.16;5023790;28;20041;-77
2022/09/12 07:49:20;;;;;;;23.25;13.07;;;17.20;99.90;;;-147.18;100.00;67318.16;5011836;28;20426;-77
2022/09/12 07:52:46;;;;;;;20.52;13.77;;;17.30;99.90;;;-147.18;100.00;67318.16;5025968;28;20042;-77
2022/09/12 07:56:12;;;;;;;20.83;13.15;;;17.30;99.90;;;-147.18;100.00;67318.16;5022113;28;20042;-76
2022/09/12 07:59:41;;;;;;;19.33;13.52;;;17.40;99.90;;;-147.18;100.00;67318.16;5025749;28;20034;-78
2022/09/12 08:03:11;;;;;;;20.50;12.85;;;17.40;99.90;;;-147.18;100.00;67318.16;5024676;28;20046;-78
2022/09/12 08:06:36;;;;;;;21.23;13.27;;;17.50;99.90;;;-147.18;100.00;67318.16;5021863;28;20077;-78
2022/09/12 08:10:04;;;;;;;21.65;13.40;;;17.50;99.90;;;-147.18;100.00;67318.16;5019687;28;20034;-77
2022/09/12 08:13:30;;;;;;;19.67;13.35;;;17.60;99.90;;;-147.18;100.00;67318.16;5018617;28;20112;-77
2022/09/12 08:16:56;;;;;;;20.45;12.48;;;17.70;99.90;;;-147.18;100.00;67318.16;5029150;28;20099;-77
2022/09/12 08:20:23;;;;;;;22.70;13.30;;;17.70;99.90;;;-147.18;100.00;67318.16;5032634;28;20041;-73
2022/09/12 08:23:51;;;;;;;21.77;12.07;;;17.70;99.90;;;-147.18;100.00;67318.16;5017268;28;20410;-77
2022/09/12 08:27:17;;;;;;;20.75;12.98;;;17.80;99.90;;;-147.18;100.00;67318.16;5012021;28;20041;-77
2022/09/12 08:30:43;;;;;;;20.17;12.90;;;17.90;99.90;;;-147.18;100.00;67318.16;5013859;28;20132;-77
2022/09/12 08:34:09;;;;;;;21.05;11.88;;;18.00;99.90;;;-147.18;100.00;67318.16;5012585;28;20492;-77
2022/09/12 08:37:36;;;;;;;17.45;11.50;;;18.00;99.90;;;-147.18;100.00;67318.16;5021256;28;20116;-77
2022/09/12 08:41:04;;;;;;;19.65;11.15;;;18.10;99.90;;;-147.18;100.00;67318.16;5028083;28;20044;-77
2022/09/12 08:45:03;;;;;;;19.00;12.00;;;18.20;99.90;;;-147.18;100.00;67318.16;5025543;28;20120;-77
2022/09/12 08:48:31;;;;;;;20.25;12.13;;;18.30;99.90;;;-147.18;100.00;67318.16;5013717;28;20038;-78
2022/09/12 08:51:59;;;;;;;21.60;11.48;;;18.30;99.90;;;-147.18;100.00;67318.16;5020424;28;20042;-77
2022/09/12 08:55:34;;;;;;;15.07;10.93;;;18.50;99.90;;;-147.18;100.00;67318.16;5015774;28;20053;-78
2022/09/12 08:59:03;;;;;;;15.20;9.77;;;18.50;99.90;;;-147.18;100.00;67318.16;5020482;28;20529;-78
2022/09/12 09:02:38;;;;;;;13.85;9.68;;;18.60;99.90;;;-147.18;100.00;67318.16;5020220;28;20486;-78
2022/09/12 09:06:17;;;;;;;14.38;9.27;;;18.70;99.90;;;-147.18;100.00;67318.16;5016078;28;20044;-78
2022/09/12 09:10:01;;;;;;;12.65;9.05;;;18.80;99.90;;;-147.18;100.00;67318.16;5020172;28;20431;-78
2022/09/12 09:17:32;;;;;;;12.80;8.68;;;18.90;99.90;;;-147.18;100.00;67318.16;5022760;28;20038;-78
2022/09/12 09:21:05;;;;;;;13.63;8.35;;;19.00;99.90;;;-147.18;100.00;67318.16;5014426;28;20042;-78
2022/09/12 09:24:37;;;;;;;16.08;8.25;;;18.90;99.90;;;-147.18;100.00;67318.16;5015973;28;20045;-78
2022/09/12 09:28:05;;;;;;;20.58;8.93;;;19.00;99.90;;;-147.18;100.00;67318.16;5019975;28;20037;-78
2022/09/12 09:31:34;;;;;;;10.85;7.60;;;19.00;99.90;;;-147.18;100.00;67318.16;5017280;28;20042;-76
2022/09/12 09:35:00;;;;;;;14.48;8.35;;;19.10;99.90;;;-147.18;100.00;67318.16;5010042;28;20038;-76
2022/09/12 09:38:36;;;;;;;20.88;9.00;;;19.10;99.90;;;-147.18;100.00;67318.16;5014984;28;20045;-75
2022/09/12 09:42:21;;;;;;;13.32;7.75;;;19.20;99.90;;;-147.18;100.00;67318.16;5027481;28;20037;-76
2022/09/12 09:45:47;;;;;;;10.68;7.25;;;19.30;99.90;;;-147.18;100.00;67318.16;5025910;28;20042;-75
2022/09/12 09:49:17;;;;;;;13.65;6.82;;;19.40;99.90;;;-147.18;100.00;67318.16;5029993;28;20045;-77
2022/09/12 09:52:43;;;;;;;8.98;6.07;;;19.50;99.90;;;-147.18;100.00;67318.16;5015966;28;20048;-77
2022/09/12 09:56:20;;;;;;;10.98;6.15;;;19.50;99.90;;;-147.18;100.00;67318.16;5024856;28;20124;-77
2022/09/12 09:59:45;;;;;;;9.00;5.65;;;19.60;99.90;;;-147.18;100.00;67318.16;5026438;28;20049;-77
2022/09/12 10:03:25;;;;;;;9.40;5.50;;;19.70;99.90;;;-147.18;100.00;67318.16;5023972;28;20044;-77
2022/09/12 10:06:53;;;;;;;8.77;4.75;;;19.80;99.90;;;-147.18;100.00;67318.16;5021347;28;20045;-76
2022/09/12 10:10:24;;;;;;;7.18;4.78;;;19.80;99.90;;;-147.18;100.00;67318.16;5010652;28;20049;-78
2022/09/12 10:14:26;;;;;;;7.15;4.78;;;19.80;99.90;;;-147.18;100.00;67318.16;5017349;28;20555;-75
2022/09/12 10:17:53;;;;;;;8.57;5.03;;;19.90;99.90;;;-147.18;100.00;67318.16;5014280;28;20044;-75
2022/09/12 10:21:32;;;;;;;8.90;4.50;;;19.90;99.90;;;-147.18;100.00;67318.16;5012965;28;20515;-75
2022/09/12 10:25:02;;;;;;;8.52;4.32;;;19.90;99.90;;;-147.18;100.00;67318.16;5019211;28;20037;-75
2022/09/12 10:28:35;;;;;;;8.88;4.90;;;20.10;99.90;;;-147.18;100.00;67318.16;5030170;28;20112;-75
2022/09/12 10:32:03;;;;;;;6.32;4.05;;;20.00;99.90;;;-147.18;100.00;67318.16;5016891;28;20048;-75
2022/09/12 10:35:43;;;;;;;9.57;4.03;;;20.20;99.90;;;-147.18;100.00;67318.16;5013192;28;20126;-74
2022/09/12 10:39:18;;;;;;;6.72;4.13;;;20.20;99.90;;;-147.18;100.00;67318.16;5010938;28;20474;-75
2022/09/12 10:42:46;;;;;;;6.13;3.72;;;20.20;99.90;;;-147.18;100.00;67318.16;5030242;28;20053;-75
2022/09/12 10:46:29;;;;;;;6.57;4.10;;;20.20;99.90;;;-147.18;100.00;67318.16;5019963;28;20124;-74
2022/09/12 10:50:22;;;;;;;6.15;3.88;;;20.20;99.90;;;-147.18;100.00;67318.16;5017246;28;20450;-73
2022/09/12 10:53:47;;;;;;;6.10;3.70;;;20.30;99.90;;;-147.18;100.00;67318.16;5028082;28;20037;-74
2022/09/12 10:57:25;;;;;;;5.72;4.10;;;20.30;99.90;;;-147.18;100.00;67318.16;5018829;28;20496;-75
2022/09/12 11:01:23;;;;;;;6.85;3.90;;;20.30;99.90;;;-147.18;100.00;67318.16;5020138;28;20045;-75
2022/09/12 11:05:08;;;;;;;7.78;3.40;;;20.30;99.90;;;-147.18;100.00;67318.16;5022233;28;20052;-73
2022/09/12 11:08:49;;;;;;;12.52;3.90;;;20.40;99.90;;;-147.18;100.00;67318.16;5009560;28;20061;-73
2022/09/12 11:12:32;;;;;;;6.63;4.00;;;20.40;99.90;;;-147.18;100.00;67318.16;5009905;28;20513;-76
2022/09/12 11:16:15;;;;;;;6.65;3.90;;;20.40;99.90;;;-147.18;100.00;67318.16;5012130;28;20512;-76
2022/09/12 11:20:09;;;;;;;8.82;4.15;;;20.40;99.90;;;-147.18;100.00;67318.16;5029925;28;20428;-76
2022/09/12 11:24:01;;;;;;;6.72;3.75;;;20.40;99.90;;;-147.18;100.00;67318.16;5029804;28;20052;-76
2022/09/12 11:27:54;;;;;;;5.50;3.28;;;20.40;99.90;;;-147.18;100.00;67318.16;5028952;28;20037;-74
2022/09/12 11:31:28;;;;;;;6.00;3.58;;;20.50;99.90;;;-147.18;100.00;67318.16;5024310;28;20038;-76
2022/09/12 11:34:59;;;;;;;5.80;3.78;;;20.50;99.90;;;-147.18;100.00;67318.16;5013116;28;20046;-76
2022/09/12 11:38:59;;;;;;;6.20;3.03;;;20.60;99.90;;;-147.18;100.00;67318.16;5009882;28;20042;-75
2022/09/12 11:42:30;;;;;;;6.63;3.60;;;20.90;99.90;;;-147.18;100.00;67318.16;5009909;28;20042;-75
2022/09/12 11:46:05;;;;;;;6.95;4.13;;;20.70;99.90;;;-147.18;100.00;67318.16;5009026;28;20046;-76
2022/09/12 11:49:40;;;;;;;5.28;3.05;;;20.70;99.90;;;-147.18;100.00;67318.16;5015209;28;20053;-76
2022/09/12 11:53:15;;;;;;;6.22;3.60;;;20.70;99.90;;;-147.18;100.00;67318.16;5009740;28;20046;-76
2022/09/12 11:56:51;;;;;;;6.03;3.40;;;20.70;99.90;;;-147.18;100.00;67318.16;5008813;28;20042;-76
2022/09/12 12:00:29;;;;;;;6.03;3.10;;;20.80;99.90;;;-147.18;100.00;67318.16;5009414;28;20049;-75
2022/09/12 12:04:06;;;;;;;5.85;3.63;;;20.80;99.90;;;-147.18;100.00;67318.16;5013397;28;20413;-76
2022/09/12 12:07:40;;;;;;;6.32;3.15;;;20.90;99.90;;;-147.18;100.00;67318.16;5011219;28;20041;-76
2022/09/12 12:11:07;;;;;;;5.15;3.08;;;20.90;99.90;;;-147.18;100.00;67318.16;5031354;23;20134;-80
2022/09/12 12:14:38;;;;;;;5.35;2.90;;;20.90;99.90;;;-147.18;100.00;67318.16;5052742;28;20513;-80
2022/09/12 12:18:16;;;;;;;6.82;3.03;;;20.90;99.90;;;-147.18;100.00;67318.16;5032794;28;20418;-80
2022/09/12 12:21:44;;;;;;;4.43;3.28;;;21.00;99.90;;;-147.18;100.00;67318.16;5042574;28;20056;-80
2022/09/12 12:25:33;;;;;;;4.88;3.15;;;21.00;99.90;;;-147.18;100.00;67318.16;4995158;28;20604;-80
2022/09/12 12:29:02;;;;;;;5.63;3.22;;;21.00;99.90;;;-147.18;100.00;67318.16;4999353;28;20061;-80
2022/09/12 12:32:28;;;;;;;6.18;3.10;;;21.00;99.90;;;-147.18;100.00;67318.16;5012700;28;20064;-80
2022/09/12 12:36:40;;;;;;;5.38;3.10;;;21.00;99.90;;;-147.18;100.00;67318.16;5011805;28;20112;-80
2022/09/12 12:40:43;;;;;;;5.05;2.85;;;21.00;99.90;;;-147.18;100.00;67318.16;5024185;28;20417;-80
2022/09/12 12:44:48;;;;;;;6.10;3.33;;;21.00;99.90;;;-147.18;100.00;67318.16;5052263;28;20041;-80
2022/09/12 12:48:19;;;;;;;6.63;3.67;;;21.00;99.90;;;-147.18;100.00;67318.16;5052091;28;20501;-80
2022/09/12 12:51:56;;;;;;;4.22;2.90;;;21.00;99.90;;;-147.18;100.00;67318.16;5052133;28;20044;-80
2022/09/12 12:55:32;;;;;;;6.00;2.90;;;21.00;99.90;;;-147.18;100.00;67318.16;5038656;28;20045;-79
2022/09/12 12:58:59;;;;;;;4.20;2.85;;;21.00;99.30;;;-147.18;100.00;67318.16;5012238;28;20041;-80
2022/09/12 13:02:29;;;;;;;5.38;3.38;;;21.00;99.20;;;-147.18;100.00;67318.16;5012211;28;20046;-80
2022/09/12 13:05:59;;;;;;;5.70;3.13;;;21.10;98.80;;;-147.18;100.00;67318.16;5011323;28;20244;-80
2022/09/12 13:09:31;;;;;;;5.18;2.95;;;21.10;99.90;;;-147.18;100.00;67318.16;5012127;28;20046;-79
2022/09/12 13:13:02;;;;;;;5.85;2.92;;;21.10;97.60;;;-147.18;100.00;67318.16;5022462;28;20060;-83
2022/09/12 13:16:53;;;;;;;4.47;2.83;;;21.10;96.00;;;-147.18;100.00;67318.16;5011143;28;20437;-83
2022/09/12 13:20:25;;;;;;;5.57;3.05;;;21.10;97.70;;;-147.18;100.00;67318.16;5020567;28;20039;-83
2022/09/12 13:24:00;;;;;;;4.70;3.20;;;21.20;97.70;;;-147.18;100.00;67318.16;5029407;28;20527;-83
2022/09/12 13:27:26;;;;;;;5.22;3.30;;;21.20;97.30;;;-147.18;100.00;67318.16;5019677;28;20065;-83
2022/09/12 13:31:11;;;;;;;6.78;3.17;;;21.30;97.70;;;-147.18;100.00;67318.16;5031323;28;20052;-86
2022/09/12 13:34:47;;;;;;;6.65;2.85;;;21.20;97.30;;;-147.18;100.00;67318.16;5028009;28;20033;-86
2022/09/12 13:38:33;;;;;;;5.25;2.70;;;21.20;96.70;;;-147.18;100.00;67318.16;5026823;28;20116;-86
2022/09/12 13:42:31;;;;;;;4.18;2.95;;;21.30;95.80;;;-147.18;100.00;67318.16;5028204;28;20038;-86
2022/09/12 13:45:59;;;;;;;11.48;4.05;;;21.20;96.80;;;-147.18;100.00;67318.16;5026773;28;20050;-86
2022/09/12 13:49:30;;;;;;;5.82;2.65;;;21.30;97.30;;;-147.18;100.00;67318.16;5028298;28;20133;-86
2022/09/12 13:53:00;;;;;;;5.38;3.40;;;21.30;97.20;;;-147.18;100.00;67318.16;5009624;28;20073;-84
2022/09/12 13:56:32;;;;;;;6.88;2.97;;;21.20;96.70;;;-147.18;100.00;67318.16;5002297;28;20049;-80
2022/09/12 14:00:00;;;;;;;7.43;3.00;;;21.30;96.10;;;-147.18;100.00;67318.16;5018457;28;20042;-80
2022/09/12 14:07:14;;;;;;;5.30;3.25;;;21.30;96.80;;;-147.18;100.00;67318.16;5025377;28;20483;-80
2022/09/12 14:10:43;;;;;;;5.25;3.20;;;21.30;98.40;;;-147.18;100.00;67318.16;5029169;28;20502;-80
2022/09/12 14:14:19;;;;;;;5.47;3.20;;;21.30;96.20;;;-147.18;100.00;67318.16;5026429;28;20120;-80
2022/09/12 14:17:50;;;;;;;5.00;3.28;;;21.30;98.00;;;-147.18;100.00;67318.16;5019635;28;20458;-80